Time;durP1;ratioP1;P1;durP2;ratioP2;P2;SDS_P1;SDS_P2;PMS_P1;PMS_P2;Temp;Humidity;BMP_temperature;BMP_pressure;BME280_temperature;BME280_humidity;BME280_pressure;Samples;Min_cycle;Max_cycle;Signal;HPM_P1;HPM_P2
2022/08/11 00:02:28;;;;;;;6.70;3.25;;;;;;;21.56;100.00;96751.16;5081217;28;20083;-39
2022/08/11 00:04:57;;;;;;;5.78;3.38;;;;;;;21.74;100.00;96753.22;5085961;28;20534;-41
2022/08/11 00:07:26;;;;;;;5.32;3.10;;;;;;;21.75;100.00;96757.56;5086722;28;20064;-42
2022/08/11 00:09:55;;;;;;;7.13;2.95;;;;;;;21.71;100.00;96754.47;5089692;28;20090;-41
2022/08/11 00:12:24;;;;;;;9.13;4.13;;;;;;;21.74;100.00;96758.59;5076557;28;20049;-44
2022/08/11 00:14:58;;;;;;;7.88;3.40;;;;;;;21.75;100.00;96750.34;5081668;28;20080;-43
2022/08/11 00:17:29;;;;;;;8.02;3.63;;;;;;;21.60;100.00;96749.72;5079371;28;20410;-42
2022/08/11 00:20:04;;;;;;;8.38;3.47;;;;;;;21.53;100.00;96752.41;5079066;28;20080;-43
2022/08/11 00:22:45;;;;;;;4.90;3.35;;;;;;;21.72;100.00;96753.44;5087682;28;20099;-48
2022/08/11 00:25:17;;;;;;;9.43;3.67;;;;;;;21.74;100.00;96758.59;5077898;28;20083;-41
2022/08/11 00:27:47;;;;;;;7.65;3.33;;;;;;;21.63;100.00;96752.00;5083674;28;20662;-43
2022/08/11 00:30:17;;;;;;;8.55;3.65;;;;;;;21.68;100.00;96756.72;5076862;28;20083;-45
2022/08/11 00:32:54;;;;;;;8.95;4.05;;;;;;;21.80;100.00;96755.06;5082953;28;20067;-48
2022/08/11 00:35:26;;;;;;;6.75;3.53;;;;;;;21.95;100.00;96754.84;5083222;28;20120;-40
2022/08/11 00:38:15;;;;;;;18.67;4.50;;;;;;;21.69;100.00;96758.41;5082993;28;20473;-46
2022/08/11 00:40:47;;;;;;;15.55;3.60;;;;;;;21.58;100.00;96746.44;5075840;28;20080;-40
2022/08/11 00:43:21;;;;;;;9.68;3.22;;;;;;;21.50;100.00;96750.13;5070443;28;20084;-40
2022/08/11 00:46:10;;;;;;;8.60;3.60;;;;;;;21.78;100.00;96749.94;5082933;28;20082;-40
2022/08/11 00:48:45;;;;;;;9.90;4.00;;;;;;;21.77;100.00;96756.31;5088985;28;20184;-41
2022/08/11 00:51:23;;;;;;;14.98;3.88;;;;;;;21.74;100.00;96750.53;5082713;28;20087;-41
2022/08/11 00:54:00;;;;;;;9.90;3.42;;;;;;;21.65;100.00;96754.47;5072529;28;20084;-40
2022/08/11 00:56:56;;;;;;;12.43;3.50;;;;;;;21.77;100.00;96750.94;5069796;28;20472;-45
2022/08/11 00:59:57;;;;;;;9.48;3.35;;;;;;;21.61;100.00;96745.16;5074779;28;20079;-45
2022/08/11 01:02:48;;;;;;;5.93;3.60;;;;;;;21.60;100.00;96747.03;5083708;28;20087;-41
2022/08/11 01:05:50;;;;;;;5.43;3.15;;;;;;;21.52;100.00;96739.19;5075400;28;20044;-41
2022/08/11 01:08:46;;;;;;;8.55;3.08;;;;;;;21.52;100.00;96740.03;5063014;28;20160;-40
2022/08/11 01:11:25;;;;;;;6.35;3.15;;;;;;;21.24;100.00;96737.50;5081906;28;20083;-40
2022/08/11 01:14:36;;;;;;;4.65;3.10;;;;;;;21.51;100.00;96729.50;5081507;28;20091;-41
2022/08/11 01:17:12;;;;;;;;;;;;;;;21.39;100.00;96731.97;5056600;28;20084;-40
2022/08/11 01:20:10;;;;;;;4.63;2.97;;;;;;;21.28;100.00;96730.69;5074208;28;19986;-39
2022/08/11 01:23:11;;;;;;;6.45;3.03;;;;;;;21.17;100.00;96735.84;5072451;28;20087;-43
2022/08/11 01:26:27;;;;;;;8.07;3.25;;;;;;;21.26;100.00;96735.44;5071928;28;20095;-41
2022/08/11 01:29:05;;;;;;;;;;;;;;;21.11;100.00;96737.50;5078781;28;20075;-47
2022/08/11 01:32:05;;;;;;;5.88;3.30;;;;;;;21.29;100.00;96732.34;5075438;28;19971;-42
2022/08/11 01:35:18;;;;;;;6.82;3.47;;;;;;;21.26;100.00;96738.09;5076151;28;20095;-45
2022/08/11 01:38:21;;;;;;;4.90;3.22;;;;;;;21.07;100.00;96737.06;5069560;28;20084;-39
2022/08/11 01:44:40;;;;;;;5.40;3.20;;;;;;;21.23;100.00;96735.00;5082142;28;20076;-42
2022/08/11 01:50:37;;;;;;;5.25;3.25;;;;;;;21.28;100.00;96732.56;5071932;28;20091;-42
2022/08/11 01:53:13;;;;;;;5.00;3.10;;;;;;;21.22;100.00;96734.19;5070980;28;20549;-41
2022/08/11 01:55:53;;;;;;;5.88;3.28;;;;;;;21.12;100.00;96735.63;5084522;28;20569;-40
2022/08/11 01:58:36;;;;;;;5.72;3.30;;;;;;;21.41;100.00;96737.16;5070413;28;20542;-39
2022/08/11 02:01:24;;;;;;;5.95;3.38;;;;;;;21.37;100.00;96730.50;5076414;28;20091;-40
2022/08/11 02:03:57;;;;;;;8.20;3.47;;;;;;;21.11;100.00;96740.16;5083233;28;20087;-39
2022/08/11 02:09:20;;;;;;;6.50;3.58;;;;;;;21.13;100.00;96738.13;5078869;28;20139;-40
2022/08/11 02:11:49;;;;;;;8.50;3.55;;;;;;;21.05;100.00;96728.38;5079413;28;20084;-43
2022/08/11 02:14:24;;;;;;;7.57;3.40;;;;;;;21.19;100.00;96729.22;5072900;28;20534;-40
2022/08/11 02:17:00;;;;;;;5.78;3.40;;;;;;;21.09;100.00;96726.97;5083585;28;20098;-41
2022/08/11 02:25:24;;;;;;;6.85;3.63;;;;;;;21.12;100.00;96722.22;5084953;28;20079;-44
2022/08/11 02:27:59;;;;;;;5.35;3.42;;;;;;;21.29;100.00;96718.94;5086007;28;20079;-41
2022/08/11 02:30:32;;;;;;;4.63;3.33;;;;;;;21.19;100.00;96712.31;5087743;28;20091;-45
2022/08/11 02:33:23;;;;;;;5.07;3.45;;;;;;;21.18;100.00;96713.34;5080448;28;20102;-41
2022/08/11 02:35:59;;;;;;;7.25;3.60;;;;;;;21.12;100.00;96716.84;5081179;28;20530;-39
2022/08/11 02:38:32;;;;;;;5.45;3.33;;;;;;;20.99;100.00;96721.19;5072254;28;20522;-40
2022/08/11 02:42:21;;;;;;;5.43;4.00;;;;;;;21.18;100.00;96714.19;5077106;28;20080;-41
2022/08/11 02:44:24;;;;;;;5.43;3.50;;;;;;;21.10;100.00;96715.22;5086164;28;20578;-41
2022/08/11 02:47:02;;;;;;;6.03;3.80;;;;;;;20.88;100.00;96713.72;5078948;28;20088;-41
2022/08/11 02:49:53;;;;;;;7.45;3.80;;;;;;;20.88;100.00;96700.31;5085132;28;20147;-41
2022/08/11 02:52:44;;;;;;;8.07;3.70;;;;;;;21.02;100.00;96701.16;5085565;28;20079;-45
2022/08/11 02:55:23;;;;;;;5.40;3.72;;;;;;;20.92;100.00;96709.63;5078728;28;20064;-40
2022/08/11 02:58:14;;;;;;;10.27;3.92;;;;;;;21.13;100.00;96713.97;5077824;28;20078;-40
2022/08/11 03:00:47;;;;;;;7.00;3.80;;;;;;;21.12;100.00;96706.94;5083912;28;20102;-42
2022/08/11 03:03:21;;;;;;;4.60;3.63;;;;;;;20.81;100.00;96712.88;5082656;28;20452;-40
2022/08/11 03:05:56;;;;;;;6.07;3.78;;;;;;;20.95;100.00;96716.41;5081263;28;20554;-41
2022/08/11 03:08:41;;;;;;;4.78;3.67;;;;;;;20.97;100.00;96722.41;5089604;28;20633;-40
2022/08/11 03:17:04;;;;;;;4.40;3.67;;;;;;;20.89;100.00;96717.22;5085314;28;20539;-40
2022/08/11 03:19:45;;;;;;;9.20;4.40;;;;;;;20.75;100.00;96716.38;5071163;28;20087;-38
2022/08/11 03:22:20;;;;;;;5.63;4.28;;;;;;;20.70;100.00;96708.13;5075176;28;20143;-40
2022/08/11 03:25:01;;;;;;;6.90;4.13;;;;;;;20.74;100.00;96709.34;5084431;28;20103;-39
2022/08/11 03:27:39;;;;;;;7.13;4.45;;;;;;;20.52;100.00;96716.72;5081465;28;20502;-44
2022/08/11 03:30:12;;;;;;;5.22;4.28;;;;;;;20.62;100.00;96707.28;5071198;28;20069;-39
2022/08/11 03:34:00;;;;;;;9.45;4.97;;;;;;;20.65;100.00;96715.91;5071813;28;20091;-39
2022/08/11 03:35:41;;;;;;;8.27;5.32;;;;;;;20.70;100.00;96710.78;5080639;28;20079;-42
2022/08/11 03:38:13;;;;;;;8.90;5.10;;;;;;;20.62;100.00;96725.22;5071576;28;20084;-39
2022/08/11 03:44:06;;;;;;;7.10;4.85;;;;;;;20.38;100.00;96713.97;5081716;28;20492;-40
2022/08/11 03:46:44;;;;;;;7.88;4.95;;;;;;;20.30;100.00;96713.28;5090182;28;20076;-41
2022/08/11 03:49:25;;;;;;;6.20;4.65;;;;;;;20.21;100.00;96711.84;5091068;28;20086;-38
2022/08/11 03:51:57;;;;;;;8.15;5.10;;;;;;;20.31;100.00;96713.13;5080922;28;20067;-39
2022/08/11 03:54:31;;;;;;;6.82;5.07;;;;;;;20.36;100.00;96715.19;5086412;28;20088;-42
2022/08/11 03:57:42;;;;;;;7.78;4.93;;;;;;;20.41;100.00;96718.09;5074966;28;20072;-41
2022/08/11 04:00:22;;;;;;;;;;;;;;;20.35;100.00;96713.53;5086913;28;20142;-39
2022/08/11 04:03:19;;;;;;;5.97;4.55;;;;;;;20.31;100.00;96713.13;5082606;28;19962;-40
2022/08/11 04:06:13;;;;;;;7.13;5.18;;;;;;;20.26;100.00;96715.53;5077876;28;20079;-43
2022/08/11 04:09:13;;;;;;;7.57;4.60;;;;;;;20.26;100.00;96722.75;5088485;28;20082;-43
2022/08/11 04:12:05;;;;;;;5.45;4.28;;;;;;;20.21;100.00;96718.00;5072428;28;20080;-40
2022/08/11 04:17:51;;;;;;;6.72;4.43;;;;;;;20.24;100.00;96711.44;5079557;28;20483;-42
2022/08/11 04:20:32;;;;;;;5.82;4.22;;;;;;;20.29;100.00;96707.13;5072178;28;20084;-41
2022/08/11 04:23:51;;;;;;;9.82;4.55;;;;;;;20.47;100.00;96711.91;5083897;28;20076;-39
2022/08/11 04:27:27;;;;;;;5.82;4.30;;;;;;;20.59;100.00;96714.91;5033359;28;20076;-39
2022/08/11 04:30:08;;;;;;;8.00;4.20;;;;;;;20.83;100.00;96717.03;5016751;28;20089;-41
2022/08/11 04:33:16;;;;;;;6.82;4.53;;;;;;;21.42;100.00;96710.09;5016296;28;20525;-42
2022/08/11 04:35:53;;;;;;;5.65;4.55;;;;;;;22.10;100.00;96708.97;5077491;28;20090;-40
2022/08/11 04:38:53;;;;;;;5.43;4.85;;;;;;;22.54;98.03;96710.06;5072216;28;20084;-41
2022/08/11 04:43:19;;;;;;;7.25;5.30;;;;;;;22.71;93.68;96705.81;5078386;28;20086;-42
2022/08/11 04:45:10;;;;;;;7.22;4.90;;;;;;;23.68;78.41;96703.75;5075370;28;20044;-44
2022/08/11 05:03:14;;;;;;;6.47;5.10;;;;;;;25.76;57.48;96709.72;5076317;28;20490;-43
2022/08/11 05:06:07;;;;;;;6.05;4.93;;;;;;;26.07;54.93;96713.16;5083684;28;20084;-40
2022/08/11 05:09:01;;;;;;;5.63;5.00;;;;;;;26.36;53.59;96716.75;5076630;28;20075;-43
2022/08/11 05:12:02;;;;;;;5.63;5.03;;;;;;;26.11;54.75;96725.13;5082066;28;20466;-44
2022/08/11 05:35:04;;;;;;;6.72;5.28;;;;;;;24.95;61.69;96719.28;5046397;28;20111;-41
2022/08/11 05:37:36;;;;;;;6.88;5.20;;;;;;;24.85;62.65;96723.38;5046127;28;20079;-40
2022/08/11 05:57:18;;;;;;;4.72;4.00;;;;;;;23.53;80.75;96728.28;5045691;28;20076;-41
2022/08/11 06:00:09;;;;;;;5.85;4.30;;;;;;;23.64;82.23;96734.81;5057754;28;20084;-40
2022/08/11 06:02:40;;;;;;;;;;;;;;;23.33;85.15;96731.13;5075980;28;20087;-42
2022/08/11 06:05:09;;;;;;;7.10;4.57;;;;;;;23.46;84.06;96731.00;5081474;28;19983;-45
2022/08/11 06:07:38;;;;;;;7.45;4.63;;;;;;;23.36;87.95;96735.25;5076468;28;20556;-45
2022/08/11 06:10:29;;;;;;;10.23;4.47;;;;;;;23.48;86.05;96727.31;5074764;28;20102;-41
2022/08/11 06:13:00;;;;;;;7.75;4.70;;;;;;;23.75;84.31;96734.13;5084424;28;20478;-43
2022/08/11 06:15:31;;;;;;;9.43;4.72;;;;;;;23.35;90.55;96726.34;5075440;28;20554;-42
2022/08/11 06:18:01;;;;;;;6.55;4.90;;;;;;;23.71;88.16;96730.25;5083659;28;20095;-41
2022/08/11 06:20:35;;;;;;;6.30;4.47;;;;;;;23.77;86.80;96729.34;5081659;28;20080;-43
2022/08/11 06:23:06;;;;;;;6.85;4.57;;;;;;;23.64;84.91;96729.41;5081458;28;20092;-49
2022/08/11 06:25:36;;;;;;;12.23;4.55;;;;;;;23.97;83.89;96729.16;5075746;28;20083;-40
2022/08/11 06:28:07;;;;;;;8.10;4.80;;;;;;;23.97;80.62;96728.31;5072999;28;20384;-42
2022/08/11 06:30:39;;;;;;;6.82;4.28;;;;;;;24.09;82.65;96726.56;5068638;28;20077;-48
2022/08/11 06:33:09;;;;;;;5.53;4.00;;;;;;;24.21;78.97;96737.41;5075245;28;20079;-40
2022/08/11 06:35:39;;;;;;;;;;;;;;;24.17;79.97;96731.63;5083804;28;20582;-45
2022/08/11 06:38:10;;;;;;;6.32;4.43;;;;;;;24.29;77.44;96732.53;5084216;28;19956;-40
2022/08/11 06:43:47;;;;;;;5.72;4.30;;;;;;;24.67;70.81;96739.56;5074161;28;20084;-44
2022/08/11 06:46:27;;;;;;;5.05;3.83;;;;;;;24.80;71.63;96734.00;5071860;28;20086;-43
2022/08/11 06:48:55;;;;;;;5.68;3.70;;;;;;;24.87;66.49;96728.53;5084494;28;20474;-45
2022/08/11 06:51:23;;;;;;;7.63;3.83;;;;;;;24.51;66.48;96727.53;5082890;28;20083;-40
2022/08/11 06:53:55;;;;;;;5.05;4.00;;;;;;;24.52;66.08;96731.06;5079436;28;20083;-43
2022/08/11 07:02:33;;;;;;;6.70;4.30;;;;;;;24.96;64.76;96729.03;5084833;28;20174;-41
2022/08/11 07:05:07;;;;;;;6.10;3.60;;;;;;;25.75;59.43;96727.81;5079091;28;20084;-43
2022/08/11 07:16:56;;;;;;;8.02;3.95;;;;;;;25.46;58.86;96726.84;5082967;28;20076;-43
2022/08/11 07:30:40;;;;;;;7.30;3.85;;;;;;;26.51;52.97;96725.22;5077174;28;20098;-42
2022/08/11 07:33:13;;;;;;;6.57;3.97;;;;;;;26.64;52.03;96718.72;5085292;28;20060;-40
2022/08/11 07:36:03;;;;;;;6.78;3.80;;;;;;;27.04;51.12;96710.53;5088624;28;20134;-40
2022/08/11 07:38:43;;;;;;;7.93;3.80;;;;;;;26.31;51.77;96720.16;5080109;28;20076;-43
2022/08/11 07:41:16;;;;;;;4.70;3.53;;;;;;;26.62;51.71;96712.72;5078257;28;20481;-43
2022/08/11 07:43:47;;;;;;;4.95;3.38;;;;;;;26.58;52.21;96715.09;5079492;28;20058;-44
2022/08/11 07:54:40;;;;;;;6.55;3.58;;;;;;;27.02;49.78;96712.69;5085104;28;20101;-40
2022/08/11 08:20:06;;;;;;;5.20;3.22;;;;;;;27.45;47.31;96705.84;5078281;28;20088;-41
2022/08/11 08:22:36;;;;;;;5.43;3.03;;;;;;;26.94;47.85;96713.06;5081858;28;20075;-41
2022/08/11 08:25:09;;;;;;;4.03;3.20;;;;;;;27.08;46.96;96713.56;5072868;28;20083;-41
2022/08/11 08:27:38;;;;;;;6.77;3.33;;;;;;;27.69;45.49;96695.66;5076986;28;20084;-40
2022/08/11 08:32:56;;;;;;;5.90;3.55;;;;;;;27.33;45.74;96705.13;5086955;28;20075;-44
2022/08/11 08:35:25;;;;;;;6.93;3.20;;;;;;;28.22;44.66;96701.59;5083929;28;20087;-41
2022/08/11 08:38:01;;;;;;;7.25;3.20;;;;;;;28.79;43.62;96714.81;5078906;28;20514;-41
2022/08/11 08:40:29;;;;;;;4.65;3.05;;;;;;;27.91;44.35;96714.75;5075757;28;20087;-45
2022/08/11 08:43:03;;;;;;;4.97;3.38;;;;;;;28.59;43.71;96708.06;5086195;28;20451;-43
2022/08/11 08:45:34;;;;;;;6.47;3.60;;;;;;;28.37;43.19;96705.34;5079341;28;20083;-42
2022/08/11 08:48:09;;;;;;;6.20;3.42;;;;;;;28.09;43.30;96714.47;5084546;28;20068;-42
2022/08/11 08:53:34;;;;;;;7.93;3.92;;;;;;;28.20;43.71;96717.31;5076138;28;20120;-41
2022/08/11 08:56:03;;;;;;;6.88;3.40;;;;;;;28.59;42.95;96708.06;5076843;28;20072;-46
2022/08/11 08:58:33;;;;;;;4.28;3.03;;;;;;;28.08;43.41;96704.69;5076869;28;20076;-41
2022/08/11 09:01:01;;;;;;;;;;;;;;;28.50;42.63;96725.88;5084427;28;20087;-41
2022/08/11 09:03:31;;;;;;;5.10;2.95;;;;;;;27.92;43.25;96703.66;5069268;28;19971;-42
2022/08/11 09:06:19;;;;;;;4.45;3.10;;;;;;;28.34;42.47;96711.25;5078386;28;20154;-43
2022/08/11 09:08:52;;;;;;;3.90;3.40;;;;;;;28.66;41.18;96715.19;5075757;28;20048;-46
2022/08/11 09:14:09;;;;;;;3.78;3.17;;;;;;;28.81;41.17;96718.91;5070773;28;20474;-44
2022/08/11 09:16:43;;;;;;;5.38;2.92;;;;;;;28.77;41.34;96715.09;5075977;28;20071;-39
2022/08/11 09:19:16;;;;;;;3.88;3.10;;;;;;;28.71;41.15;96713.38;5082355;28;20076;-44
2022/08/11 09:26:57;;;;;;;6.95;2.90;;;;;;;28.77;41.37;96722.41;5082334;28;20087;-43
2022/08/11 09:27:23;;;;;;;5.50;2.90;;;;;;;29.06;40.02;96712.16;5076876;28;20084;-40
2022/08/11 09:29:53;;;;;;;5.47;3.15;;;;;;;29.10;40.65;96716.00;5079746;28;20530;-41
2022/08/11 09:32:22;;;;;;;6.13;3.10;;;;;;;29.68;39.71;96710.81;5082200;28;20482;-42
2022/08/11 09:34:52;;;;;;;4.90;2.92;;;;;;;29.22;39.72;96715.84;5082500;28;20160;-47
2022/08/11 09:40:30;;;;;;;4.47;2.80;;;;;;;29.52;38.92;96715.28;5078495;28;20083;-41
2022/08/11 09:45:50;;;;;;;4.28;2.80;;;;;;;29.40;38.53;96706.50;5069249;28;20084;-41
2022/08/11 09:48:19;;;;;;;3.33;2.60;;;;;;;29.71;38.06;96707.59;5078116;28;20071;-43
2022/08/11 09:50:51;;;;;;;5.43;2.80;;;;;;;30.39;37.60;96710.47;5074912;28;20627;-40
2022/08/11 09:53:20;;;;;;;3.80;2.88;;;;;;;29.87;37.78;96711.22;5072206;28;20072;-44
2022/08/11 09:58:58;;;;;;;4.28;2.90;;;;;;;29.94;36.78;96698.19;5079861;28;20107;-40
2022/08/11 10:01:30;;;;;;;3.70;2.75;;;;;;;29.95;36.90;96703.41;5075315;28;20549;-41
2022/08/11 10:04:01;;;;;;;5.55;2.60;;;;;;;29.75;36.35;96703.25;5069074;28;20068;-41
2022/08/11 10:09:24;;;;;;;4.40;2.33;;;;;;;30.11;36.25;96707.03;5080306;28;20105;-39
2022/08/11 10:11:55;;;;;;;;;;;;;;;29.38;36.78;96682.28;5081344;28;20067;-44
2022/08/11 10:17:13;;;;;;;3.70;2.78;;;;;;;30.11;36.20;96688.00;5068293;28;20084;-38
2022/08/11 10:19:44;;;;;;;6.20;3.13;;;;;;;29.77;35.94;96691.06;5074291;28;20244;-40
2022/08/11 10:28:09;;;;;;;3.15;2.63;;;;;;;30.72;35.32;96685.53;5080908;28;20728;-41
2022/08/11 10:34:00;;;;;;;4.82;2.50;;;;;;;29.86;35.33;96685.94;5088898;28;20071;-41
2022/08/11 10:36:30;;;;;;;6.05;2.90;;;;;;;30.05;35.66;96680.88;5086065;28;20078;-40
2022/08/11 10:39:00;;;;;;;4.35;2.50;;;;;;;30.36;35.73;96679.16;5089391;28;20443;-42
2022/08/11 10:44:38;;;;;;;3.22;2.35;;;;;;;30.11;35.09;96674.41;5077792;28;20073;-41
2022/08/11 11:00:59;;;;;;;3.05;2.40;;;;;;;30.88;33.65;96655.69;5078752;28;20079;-41
2022/08/11 11:03:30;;;;;;;3.53;2.70;;;;;;;31.39;33.60;96650.31;5077100;28;20086;-40
2022/08/11 11:06:05;;;;;;;6.32;2.63;;;;;;;31.10;34.36;96653.50;5092076;28;20080;-43
2022/08/11 11:08:57;;;;;;;3.35;2.35;;;;;;;30.80;33.69;96653.47;5078455;28;20084;-46
2022/08/11 11:20:14;;;;;;;4.40;2.60;;;;;;;32.27;33.02;96641.66;5080346;28;20102;-39
2022/08/11 11:23:05;;;;;;;2.92;2.60;;;;;;;31.13;33.59;96639.34;5077696;28;20522;-47
2022/08/11 11:25:39;;;;;;;5.60;2.30;;;;;;;30.98;34.07;96640.16;5078576;28;20056;-44
2022/08/11 11:28:33;;;;;;;5.13;2.70;;;;;;;30.44;34.04;96642.44;5078742;28;20072;-43
2022/08/11 11:31:11;;;;;;;5.63;2.92;;;;;;;31.61;33.22;96639.91;5081954;28;20083;-46
2022/08/11 11:33:59;;;;;;;3.72;2.65;;;;;;;31.73;33.58;96636.06;5087807;28;20076;-43
2022/08/11 11:36:45;;;;;;;5.93;2.60;;;;;;;31.64;32.94;96633.91;5078704;28;20140;-44
2022/08/11 11:39:18;;;;;;;4.03;2.50;;;;;;;31.42;32.83;96628.75;5077284;28;20075;-41
2022/08/11 11:41:47;;;;;;;3.55;2.33;;;;;;;31.65;32.67;96632.00;5071055;28;20076;-41
2022/08/11 11:44:15;;;;;;;4.28;2.63;;;;;;;31.14;32.74;96634.72;5073755;28;20080;-44
2022/08/11 11:46:45;;;;;;;3.75;2.70;;;;;;;31.80;32.91;96631.97;5075380;28;20084;-43
2022/08/11 11:49:17;;;;;;;2.80;2.35;;;;;;;31.73;32.77;96636.06;5080723;28;20084;-46
2022/08/11 11:51:47;;;;;;;4.63;2.90;;;;;;;32.09;32.50;96626.72;5087813;28;20088;-40
2022/08/11 11:54:17;;;;;;;3.63;2.88;;;;;;;32.52;31.59;96632.59;5088248;28;20099;-40
2022/08/11 11:56:46;;;;;;;3.17;2.50;;;;;;;31.19;32.34;96635.53;5090686;28;20102;-47
2022/08/11 12:02:02;;;;;;;5.00;2.70;;;;;;;32.09;32.11;96632.19;5070324;28;20087;-41
2022/08/11 12:04:44;;;;;;;4.20;2.33;;;;;;;32.42;31.48;96632.66;5084100;28;20072;-41
2022/08/11 12:09:58;;;;;;;6.43;2.60;;;;;;;31.66;32.43;96622.75;5081025;28;20494;-47
2022/08/11 12:15:12;;;;;;;4.88;2.45;;;;;;;31.80;31.71;96631.16;5090264;28;20079;-43
2022/08/11 12:17:41;;;;;;;3.53;2.63;;;;;;;31.71;31.52;96620.00;5086069;28;20080;-45
2022/08/11 12:20:13;;;;;;;4.22;2.58;;;;;;;32.46;31.30;96621.97;5080876;28;20086;-43
2022/08/11 12:28:50;;;;;;;3.60;2.42;;;;;;;32.51;30.76;96605.56;5070572;28;20080;-42
2022/08/11 12:31:24;;;;;;;5.00;2.30;;;;;;;32.77;31.18;96596.13;5087574;28;20131;-41
2022/08/11 12:33:54;;;;;;;3.10;2.53;;;;;;;32.13;31.03;96597.78;5090268;28;20504;-41
2022/08/11 12:36:24;;;;;;;;;;;;;;;32.99;31.04;96597.63;5077477;28;20102;-41
2022/08/11 12:38:53;;;;;;;3.20;2.22;;;;;;;33.00;30.52;96582.84;5078894;28;19967;-44
2022/08/11 12:46:57;;;;;;;3.33;2.20;;;;;;;32.42;29.96;96588.13;5069520;28;20080;-41
2022/08/11 12:52:20;;;;;;;4.75;2.45;;;;;;;31.91;30.71;96589.97;5069877;28;20743;-43
2022/08/11 12:54:57;;;;;;;3.83;2.28;;;;;;;32.84;29.93;96585.69;5077125;28;20082;-41
2022/08/11 13:05:54;;;;;;;3.72;2.35;;;;;;;33.31;28.68;96576.03;5069998;28;20510;-41
2022/08/11 13:08:25;;;;;;;3.20;2.40;;;;;;;33.91;29.05;96577.66;5077401;28;20076;-41
2022/08/11 13:13:43;;;;;;;2.90;2.15;;;;;;;31.88;30.39;96589.72;5078408;28;20079;-41
2022/08/11 13:16:26;;;;;;;5.03;2.50;;;;;;;32.57;29.60;96577.13;5073510;28;20086;-42
2022/08/11 13:18:55;;;;;;;3.38;2.03;;;;;;;33.63;27.99;96576.59;5083178;28;20509;-48
2022/08/11 13:21:24;;;;;;;3.83;2.20;;;;;;;33.63;28.06;96571.94;5085357;28;20094;-42
2022/08/11 13:23:55;;;;;;;4.03;2.53;;;;;;;33.50;27.92;96569.88;5079036;28;20094;-44
2022/08/11 13:26:34;;;;;;;3.03;1.95;;;;;;;32.80;28.36;96560.03;5080182;28;20071;-42
2022/08/11 13:29:19;;;;;;;2.83;2.30;;;;;;;32.36;28.91;96571.75;5081473;28;20068;-42
2022/08/11 13:31:48;;;;;;;3.90;2.08;;;;;;;32.97;28.67;96565.13;5085942;28;20080;-40
2022/08/11 13:34:17;;;;;;;3.08;2.10;;;;;;;33.57;27.86;96559.41;5076116;28;20419;-43
2022/08/11 13:36:48;;;;;;;2.95;1.92;;;;;;;33.58;28.46;96557.47;5077287;28;20549;-42
2022/08/11 13:39:18;;;;;;;;;;;;;;;33.49;28.53;96562.78;5074686;28;20474;-44
2022/08/11 13:41:48;;;;;;;4.40;2.15;;;;;;;33.26;28.12;96556.13;5077529;28;19970;-41
2022/08/11 13:44:17;;;;;;;3.20;2.13;;;;;;;32.82;28.07;96555.09;5082563;28;20451;-42
2022/08/11 13:46:54;;;;;;;3.70;2.30;;;;;;;32.79;28.37;96546.66;5075399;28;20087;-46
2022/08/11 13:49:22;;;;;;;3.45;2.10;;;;;;;33.52;27.53;96551.28;5079188;28;20087;-44
2022/08/11 13:51:51;;;;;;;3.22;2.30;;;;;;;32.61;28.38;96554.44;5078410;28;20076;-41
2022/08/11 13:54:23;;;;;;;2.97;2.10;;;;;;;33.27;28.06;96555.03;5079274;28;20091;-41
2022/08/11 13:56:54;;;;;;;4.18;2.63;;;;;;;32.72;28.04;96551.63;5069134;28;20136;-47
2022/08/11 13:59:23;;;;;;;4.88;2.30;;;;;;;33.36;27.78;96550.56;5079274;28;20064;-44
2022/08/11 14:02:02;;;;;;;2.53;2.17;;;;;;;33.20;27.55;96541.69;5081434;28;20083;-42
2022/08/11 14:04:54;;;;;;;4.18;1.90;;;;;;;32.91;27.15;96552.56;5077460;28;20071;-41
2022/08/11 14:07:24;;;;;;;2.33;1.80;;;;;;;34.01;26.56;96540.06;5083439;28;20067;-41
2022/08/11 14:09:57;;;;;;;5.95;2.20;;;;;;;33.79;27.41;96534.25;5081771;28;20636;-43
2022/08/11 14:15:18;;;;;;;2.83;2.30;;;;;;;32.52;28.41;96528.84;5082009;28;20088;-44
2022/08/11 14:17:50;;;;;;;2.80;2.03;;;;;;;32.38;28.50;96525.91;5085086;28;20084;-43
2022/08/11 14:20:20;;;;;;;2.97;2.20;;;;;;;33.51;27.71;96536.75;5083931;28;20526;-41
2022/08/11 14:23:09;;;;;;;4.13;2.20;;;;;;;33.68;27.83;96544.50;5078295;28;20071;-44
2022/08/11 14:26:22;;;;;;;5.78;2.20;;;;;;;33.75;27.49;96539.50;5073529;28;20083;-44
2022/08/11 14:28:33;;;;;;;4.63;1.85;;;;;;;33.25;27.66;96544.38;5075951;28;20084;-47
2022/08/11 14:31:13;;;;;;;4.72;2.20;;;;;;;33.24;27.58;96537.31;5079347;28;20468;-41
2022/08/11 14:33:42;;;;;;;3.05;2.20;;;;;;;33.02;27.77;96536.94;5075231;28;20079;-47
2022/08/11 14:36:32;;;;;;;5.07;2.63;;;;;;;32.42;28.43;96536.25;5079629;28;20499;-43
2022/08/11 14:39:04;;;;;;;5.30;2.25;;;;;;;33.50;27.46;96543.34;5076704;28;20095;-43
2022/08/11 14:47:28;;;;;;;3.65;2.10;;;;;;;33.01;27.00;96538.06;5068743;28;20080;-48
2022/08/11 14:49:58;;;;;;;3.00;2.10;;;;;;;33.06;27.23;96533.34;5081554;28;20075;-40
2022/08/11 14:52:44;;;;;;;2.85;2.17;;;;;;;33.67;27.26;96539.34;5081995;28;20071;-43
2022/08/11 14:58:01;;;;;;;2.72;2.03;;;;;;;33.30;28.01;96530.66;5068272;28;20090;-41
2022/08/11 15:00:30;;;;;;;2.95;2.13;;;;;;;33.43;28.35;96536.56;5076289;28;20087;-44
2022/08/11 15:03:10;;;;;;;6.38;2.42;;;;;;;33.37;27.94;96535.78;5079752;28;20098;-43
2022/08/11 15:05:42;;;;;;;4.80;2.53;;;;;;;33.17;27.43;96525.88;5085724;28;20083;-42
2022/08/11 15:14:05;;;;;;;4.75;2.30;;;;;;;32.66;28.86;96525.44;5075898;28;20083;-41
2022/08/11 15:19:20;;;;;;;5.00;2.08;;;;;;;33.33;27.79;96532.00;5080923;28;20105;-46
2022/08/11 15:24:36;;;;;;;3.45;2.05;;;;;;;33.16;28.30;96524.25;5079463;28;20096;-42
2022/08/11 15:38:35;;;;;;;4.28;2.35;;;;;;;32.88;27.93;96512.16;5080449;28;20084;-42
2022/08/11 15:46:42;;;;;;;3.35;2.35;;;;;;;31.83;28.83;96502.41;5081010;28;20078;-41
2022/08/11 15:49:12;;;;;;;2.53;2.25;;;;;;;32.41;29.04;96510.03;5077840;28;20090;-39
2022/08/11 15:51:53;;;;;;;3.45;1.95;;;;;;;31.87;28.92;96512.53;5086381;28;20083;-43
2022/08/11 15:54:26;;;;;;;2.72;2.45;;;;;;;32.51;29.11;96507.25;5078026;28;20076;-40
2022/08/11 15:56:56;;;;;;;3.00;2.10;;;;;;;31.96;29.46;96503.75;5070876;28;20083;-41
2022/08/11 16:05:04;;;;;;;2.65;2.10;;;;;;;31.17;30.00;96500.66;5075099;28;20550;-43
2022/08/11 16:07:34;;;;;;;2.20;2.00;;;;;;;32.24;29.04;96494.84;5078662;28;20448;-46
2022/08/11 16:10:10;;;;;;;2.15;1.80;;;;;;;31.46;28.99;96497.38;5088837;28;20082;-44
2022/08/11 16:16:13;;;;;;;2.50;1.98;;;;;;;31.11;29.08;96497.16;5083064;28;20047;-48
2022/08/11 16:18:41;;;;;;;6.90;2.00;;;;;;;32.06;28.46;96492.78;5070202;28;20103;-41
2022/08/11 16:21:13;;;;;;;9.65;2.42;;;;;;;31.67;29.24;96499.75;5070425;28;20586;-42
2022/08/11 16:24:04;;;;;;;3.50;1.98;;;;;;;31.40;28.31;96500.09;5079608;28;20075;-42
2022/08/11 16:26:37;;;;;;;2.97;1.92;;;;;;;31.22;28.29;96500.66;5073564;28;20650;-42
2022/08/11 16:29:26;;;;;;;1.92;1.73;;;;;;;31.60;28.08;96492.97;5077948;28;20083;-43
2022/08/11 16:40:21;;;;;;;3.03;2.20;;;;;;;31.34;28.43;96487.56;5078901;28;20102;-42
2022/08/11 16:48:28;;;;;;;4.78;2.03;;;;;;;30.86;27.60;96486.28;5076952;28;20087;-44
2022/08/11 16:51:07;;;;;;;3.72;2.15;;;;;;;31.01;27.41;96478.09;5082780;28;20083;-40
2022/08/11 16:53:37;;;;;;;2.35;1.70;;;;;;;31.00;27.54;96481.06;5083156;28;20075;-41
2022/08/11 16:56:32;;;;;;;1.80;1.50;;;;;;;31.00;28.47;96483.81;5085760;28;20087;-44
2022/08/11 16:59:14;;;;;;;2.30;1.58;;;;;;;30.86;28.58;96473.47;5082768;28;20079;-41
2022/08/11 17:01:51;;;;;;;5.28;2.20;;;;;;;30.81;28.59;96473.47;5088519;28;20932;-40
2022/08/11 17:13:25;;;;;;;2.22;1.70;;;;;;;31.74;27.50;96479.56;5074408;28;20545;-41
2022/08/11 17:16:10;;;;;;;3.15;1.77;;;;;;;31.40;27.80;96470.13;5076356;28;20091;-44
2022/08/11 17:18:50;;;;;;;2.65;1.40;;;;;;;32.00;27.19;96467.44;5075001;28;20080;-44
2022/08/11 17:21:20;;;;;;;2.88;1.90;;;;;;;32.61;26.85;96474.41;5075778;28;20072;-45
2022/08/11 17:23:53;;;;;;;5.32;1.90;;;;;;;32.58;26.89;96475.00;5081626;28;20072;-44
2022/08/11 17:26:26;;;;;;;5.97;1.90;;;;;;;32.68;26.58;96472.19;5074920;28;20064;-42
2022/08/11 17:28:59;;;;;;;2.63;1.85;;;;;;;32.48;27.10;96475.06;5074132;28;20076;-47